sensor_id;sensor_type;location;lat;lon;timestamp;pressure;altitude;pressure_sealevel;temperature;humidity
62057;BME280;48016;50.284;18.860;2023-02-13T00:00:15;100115.48;;;2.03;85.91
62057;BME280;48016;50.284;18.860;2023-02-13T00:03:04;100120.88;;;2.06;85.87
62057;BME280;48016;50.284;18.860;2023-02-13T00:05:31;100120.68;;;2.06;85.97
62057;BME280;48016;50.284;18.860;2023-02-13T00:07:59;100119.34;;;2.08;85.96
62057;BME280;48016;50.284;18.860;2023-02-13T00:10:26;100123.59;;;2.08;85.75
62057;BME280;48016;50.284;18.860;2023-02-13T00:12:52;100125.79;;;2.07;85.87
62057;BME280;48016;50.284;18.860;2023-02-13T00:15:19;100125.36;;;2.08;85.85
62057;BME280;48016;50.284;18.860;2023-02-13T00:17:45;100124.79;;;2.08;85.91
62057;BME280;48016;50.284;18.860;2023-02-13T00:20:13;100127.88;;;2.09;85.73
62057;BME280;48016;50.284;18.860;2023-02-13T00:22:39;100125.15;;;2.10;85.89
62057;BME280;48016;50.284;18.860;2023-02-13T00:25:07;100119.73;;;2.09;85.63
62057;BME280;48016;50.284;18.860;2023-02-13T00:27:33;100115.48;;;2.08;85.78
62057;BME280;48016;50.284;18.860;2023-02-13T00:30:01;100109.91;;;2.11;85.92
62057;BME280;48016;50.284;18.860;2023-02-13T00:32:28;100108.90;;;2.15;85.95
62057;BME280;48016;50.284;18.860;2023-02-13T00:34:54;100112.75;;;2.16;85.71
62057;BME280;48016;50.284;18.860;2023-02-13T00:37:22;100117.48;;;2.13;85.75
62057;BME280;48016;50.284;18.860;2023-02-13T00:39:48;100121.56;;;2.13;85.81
62057;BME280;48016;50.284;18.860;2023-02-13T00:42:15;100128.33;;;2.12;85.76
62057;BME280;48016;50.284;18.860;2023-02-13T00:44:42;100121.02;;;2.10;85.83
62057;BME280;48016;50.284;18.860;2023-02-13T00:47:08;100113.77;;;2.10;85.75
62057;BME280;48016;50.284;18.860;2023-02-13T00:49:35;100113.01;;;2.10;85.72
62057;BME280;48016;50.284;18.860;2023-02-13T00:52:02;100114.65;;;2.10;85.77
62057;BME280;48016;50.284;18.860;2023-02-13T00:54:28;100115.40;;;2.09;85.87
62057;BME280;48016;50.284;18.860;2023-02-13T00:56:55;100115.34;;;2.10;85.84
62057;BME280;48016;50.284;18.860;2023-02-13T00:59:22;100112.19;;;2.11;85.92
62057;BME280;48016;50.284;18.860;2023-02-13T01:01:48;100109.61;;;2.14;85.89
62057;BME280;48016;50.284;18.860;2023-02-13T01:04:15;100109.30;;;2.15;85.88
62057;BME280;48016;50.284;18.860;2023-02-13T01:06:42;100107.57;;;2.15;85.72
62057;BME280;48016;50.284;18.860;2023-02-13T01:09:09;100108.20;;;2.14;85.87
62057;BME280;48016;50.284;18.860;2023-02-13T01:11:36;100103.58;;;2.12;85.80
62057;BME280;48016;50.284;18.860;2023-02-13T01:14:03;100103.27;;;2.10;85.90
62057;BME280;48016;50.284;18.860;2023-02-13T01:16:30;100098.14;;;2.10;86.02
62057;BME280;48016;50.284;18.860;2023-02-13T01:18:57;100102.31;;;2.11;86.04
62057;BME280;48016;50.284;18.860;2023-02-13T01:21:24;100099.63;;;2.11;86.00
62057;BME280;48016;50.284;18.860;2023-02-13T01:23:50;100093.39;;;2.09;85.88
62057;BME280;48016;50.284;18.860;2023-02-13T01:26:19;100088.13;;;2.10;86.03
62057;BME280;48016;50.284;18.860;2023-02-13T01:28:47;100086.30;;;2.10;86.16
62057;BME280;48016;50.284;18.860;2023-02-13T01:31:14;100091.59;;;2.09;86.15
62057;BME280;48016;50.284;18.860;2023-02-13T01:33:41;100090.45;;;2.10;86.21
62057;BME280;48016;50.284;18.860;2023-02-13T01:36:09;100083.50;;;2.12;86.33
62057;BME280;48016;50.284;18.860;2023-02-13T01:38:37;100081.45;;;2.16;86.34
62057;BME280;48016;50.284;18.860;2023-02-13T01:41:04;100083.83;;;2.21;86.31
62057;BME280;48016;50.284;18.860;2023-02-13T01:43:49;100084.88;;;2.23;86.09
62057;BME280;48016;50.284;18.860;2023-02-13T01:46:32;100084.60;;;2.22;85.95
62057;BME280;48016;50.284;18.860;2023-02-13T01:49:08;100079.77;;;2.20;86.03
62057;BME280;48016;50.284;18.860;2023-02-13T01:51:37;100076.17;;;2.19;86.21
62057;BME280;48016;50.284;18.860;2023-02-13T01:54:10;100075.41;;;2.19;86.25
62057;BME280;48016;50.284;18.860;2023-02-13T01:56:42;100073.45;;;2.23;86.20
62057;BME280;48016;50.284;18.860;2023-02-13T01:59:17;100068.38;;;2.22;86.29
62057;BME280;48016;50.284;18.860;2023-02-13T02:01:45;100067.36;;;2.23;86.28
62057;BME280;48016;50.284;18.860;2023-02-13T02:04:14;100062.95;;;2.21;86.06
62057;BME280;48016;50.284;18.860;2023-02-13T02:06:46;100061.86;;;2.19;86.30
62057;BME280;48016;50.284;18.860;2023-02-13T02:09:19;100063.91;;;2.20;86.49
62057;BME280;48016;50.284;18.860;2023-02-13T02:11:52;100065.07;;;2.19;86.33
62057;BME280;48016;50.284;18.860;2023-02-13T02:14:20;100061.06;;;2.19;86.51
62057;BME280;48016;50.284;18.860;2023-02-13T02:16:47;100062.58;;;2.20;86.70
62057;BME280;48016;50.284;18.860;2023-02-13T02:33:25;100058.52;;;2.11;86.84
62057;BME280;48016;50.284;18.860;2023-02-13T02:39:15;100056.09;;;2.14;87.15
62057;BME280;48016;50.284;18.860;2023-02-13T02:42:12;100054.86;;;2.15;87.03
62057;BME280;48016;50.284;18.860;2023-02-13T02:48:02;100052.50;;;2.16;87.03
62057;BME280;48016;50.284;18.860;2023-02-13T02:51:00;100055.80;;;2.16;87.00
62057;BME280;48016;50.284;18.860;2023-02-13T02:53:31;100059.67;;;2.17;86.96
62057;BME280;48016;50.284;18.860;2023-02-13T02:58:54;100059.67;;;2.15;86.91
62057;BME280;48016;50.284;18.860;2023-02-13T03:01:42;100052.77;;;2.15;87.36
62057;BME280;48016;50.284;18.860;2023-02-13T03:04:34;100053.14;;;2.16;87.18
62057;BME280;48016;50.284;18.860;2023-02-13T03:07:20;100058.73;;;2.16;87.11
62057;BME280;48016;50.284;18.860;2023-02-13T03:09:51;100060.20;;;2.13;87.22
62057;BME280;48016;50.284;18.860;2023-02-13T03:12:43;100062.69;;;2.12;87.38
62057;BME280;48016;50.284;18.860;2023-02-13T03:15:32;100062.61;;;2.14;87.47
62057;BME280;48016;50.284;18.860;2023-02-13T03:18:01;100062.45;;;2.16;87.32
62057;BME280;48016;50.284;18.860;2023-02-13T03:21:11;100067.55;;;2.16;87.35
62057;BME280;48016;50.284;18.860;2023-02-13T03:24:28;100067.40;;;2.16;87.51
62057;BME280;48016;50.284;18.860;2023-02-13T03:27:08;100065.74;;;2.16;87.46
62057;BME280;48016;50.284;18.860;2023-02-13T03:29:48;100063.89;;;2.17;87.60
62057;BME280;48016;50.284;18.860;2023-02-13T03:38:54;100067.90;;;2.18;87.82
62057;BME280;48016;50.284;18.860;2023-02-13T03:41:39;100065.63;;;2.18;87.82
62057;BME280;48016;50.284;18.860;2023-02-13T03:44:29;100063.48;;;2.20;87.90
62057;BME280;48016;50.284;18.860;2023-02-13T03:46:56;100062.04;;;2.20;87.79
62057;BME280;48016;50.284;18.860;2023-02-13T03:49:41;100058.44;;;2.20;87.89
62057;BME280;48016;50.284;18.860;2023-02-13T03:52:43;100058.81;;;2.22;87.98
62057;BME280;48016;50.284;18.860;2023-02-13T03:55:15;100056.46;;;2.24;87.99
62057;BME280;48016;50.284;18.860;2023-02-13T03:58:06;100057.42;;;2.23;88.03
62057;BME280;48016;50.284;18.860;2023-02-13T04:00:55;100057.27;;;2.23;88.03
62057;BME280;48016;50.284;18.860;2023-02-13T04:03:36;100062.77;;;2.23;87.99
62057;BME280;48016;50.284;18.860;2023-02-13T04:06:31;100064.02;;;2.23;88.11
62057;BME280;48016;50.284;18.860;2023-02-13T04:08:59;100059.36;;;2.25;88.24
62057;BME280;48016;50.284;18.860;2023-02-13T04:14:26;100056.38;;;2.26;88.18
62057;BME280;48016;50.284;18.860;2023-02-13T04:17:01;100051.63;;;2.26;88.14
62057;BME280;48016;50.284;18.860;2023-02-13T04:19:30;100051.50;;;2.27;88.10
62057;BME280;48016;50.284;18.860;2023-02-13T04:21:59;100045.70;;;2.28;88.11
62057;BME280;48016;50.284;18.860;2023-02-13T04:24:27;100045.05;;;2.31;88.11
62057;BME280;48016;50.284;18.860;2023-02-13T04:26:54;100042.29;;;2.32;88.18
62057;BME280;48016;50.284;18.860;2023-02-13T04:29:23;100045.36;;;2.37;88.21
62057;BME280;48016;50.284;18.860;2023-02-13T04:31:50;100048.27;;;2.39;88.10
62057;BME280;48016;50.284;18.860;2023-02-13T04:34:17;100052.00;;;2.40;87.95
62057;BME280;48016;50.284;18.860;2023-02-13T04:36:43;100052.02;;;2.39;87.91
62057;BME280;48016;50.284;18.860;2023-02-13T04:39:10;100059.27;;;2.40;88.05
62057;BME280;48016;50.284;18.860;2023-02-13T04:41:37;100056.64;;;2.41;87.94
62057;BME280;48016;50.284;18.860;2023-02-13T04:44:04;100058.11;;;2.41;88.04
62057;BME280;48016;50.284;18.860;2023-02-13T04:46:31;100059.06;;;2.43;88.05
62057;BME280;48016;50.284;18.860;2023-02-13T04:48:57;100059.58;;;2.47;88.27
62057;BME280;48016;50.284;18.860;2023-02-13T04:51:24;100054.33;;;2.44;87.88
62057;BME280;48016;50.284;18.860;2023-02-13T04:53:51;100055.98;;;2.42;88.01
62057;BME280;48016;50.284;18.860;2023-02-13T04:56:17;100054.52;;;2.41;87.94
62057;BME280;48016;50.284;18.860;2023-02-13T04:58:44;100054.02;;;2.41;87.92
62057;BME280;48016;50.284;18.860;2023-02-13T05:01:12;100050.80;;;2.41;87.98
62057;BME280;48016;50.284;18.860;2023-02-13T05:03:39;100053.79;;;2.43;88.07
62057;BME280;48016;50.284;18.860;2023-02-13T05:06:06;100053.89;;;2.44;88.05
62057;BME280;48016;50.284;18.860;2023-02-13T05:08:33;100055.11;;;2.44;88.06
62057;BME280;48016;50.284;18.860;2023-02-13T05:11:00;100054.23;;;2.45;88.18
62057;BME280;48016;50.284;18.860;2023-02-13T05:13:27;100052.73;;;2.46;88.25
62057;BME280;48016;50.284;18.860;2023-02-13T05:15:54;100044.16;;;2.46;88.05
62057;BME280;48016;50.284;18.860;2023-02-13T05:18:20;100042.66;;;2.45;88.11
62057;BME280;48016;50.284;18.860;2023-02-13T05:20:47;100047.23;;;2.46;88.24
62057;BME280;48016;50.284;18.860;2023-02-13T05:23:34;100048.64;;;2.46;88.31
62057;BME280;48016;50.284;18.860;2023-02-13T05:26:01;100044.94;;;2.46;88.15
62057;BME280;48016;50.284;18.860;2023-02-13T05:28:28;100040.08;;;2.45;88.13
62057;BME280;48016;50.284;18.860;2023-02-13T05:31:13;100039.84;;;2.43;88.24
62057;BME280;48016;50.284;18.860;2023-02-13T05:33:40;100047.38;;;2.41;88.27
62057;BME280;48016;50.284;18.860;2023-02-13T05:36:07;100047.90;;;2.40;88.31
62057;BME280;48016;50.284;18.860;2023-02-13T05:38:34;100048.39;;;2.40;88.50
62057;BME280;48016;50.284;18.860;2023-02-13T05:41:01;100044.61;;;2.41;88.32
62057;BME280;48016;50.284;18.860;2023-02-13T05:43:28;100047.27;;;2.42;88.53
62057;BME280;48016;50.284;18.860;2023-02-13T05:46:04;100049.85;;;2.43;88.43
62057;BME280;48016;50.284;18.860;2023-02-13T05:48:32;100044.46;;;2.42;88.44
62057;BME280;48016;50.284;18.860;2023-02-13T05:50:59;100041.54;;;2.42;88.27
62057;BME280;48016;50.284;18.860;2023-02-13T05:53:27;100038.42;;;2.45;88.64
62057;BME280;48016;50.284;18.860;2023-02-13T05:55:55;100046.10;;;2.48;88.31
62057;BME280;48016;50.284;18.860;2023-02-13T05:58:22;100051.75;;;2.49;88.18
62057;BME280;48016;50.284;18.860;2023-02-13T06:00:49;100051.08;;;2.48;88.33
62057;BME280;48016;50.284;18.860;2023-02-13T06:03:15;100056.59;;;2.48;88.31
62057;BME280;48016;50.284;18.860;2023-02-13T06:05:42;100061.19;;;2.47;88.25
62057;BME280;48016;50.284;18.860;2023-02-13T06:08:09;100061.23;;;2.48;88.35
62057;BME280;48016;50.284;18.860;2023-02-13T06:10:36;100059.65;;;2.50;88.23
62057;BME280;48016;50.284;18.860;2023-02-13T06:13:02;100061.33;;;2.49;88.10
62057;BME280;48016;50.284;18.860;2023-02-13T06:15:29;100064.92;;;2.49;88.08
62057;BME280;48016;50.284;18.860;2023-02-13T06:17:56;100068.83;;;2.47;88.21
62057;BME280;48016;50.284;18.860;2023-02-13T06:20:23;100064.52;;;2.46;88.13
62057;BME280;48016;50.284;18.860;2023-02-13T06:22:50;100063.19;;;2.43;88.18
62057;BME280;48016;50.284;18.860;2023-02-13T06:25:17;100064.29;;;2.39;88.08
62057;BME280;48016;50.284;18.860;2023-02-13T06:27:44;100066.58;;;2.38;88.23
62057;BME280;48016;50.284;18.860;2023-02-13T06:30:12;100065.77;;;2.36;88.24
62057;BME280;48016;50.284;18.860;2023-02-13T06:32:39;100068.31;;;2.33;88.13
62057;BME280;48016;50.284;18.860;2023-02-13T06:35:06;100067.56;;;2.30;88.03
62057;BME280;48016;50.284;18.860;2023-02-13T06:37:33;100065.59;;;2.31;87.95
62057;BME280;48016;50.284;18.860;2023-02-13T06:40:00;100067.60;;;2.30;87.98
62057;BME280;48016;50.284;18.860;2023-02-13T06:42:27;100069.67;;;2.32;88.11
62057;BME280;48016;50.284;18.860;2023-02-13T06:44:54;100066.05;;;2.36;88.36
62057;BME280;48016;50.284;18.860;2023-02-13T06:47:20;100064.70;;;2.39;88.09
62057;BME280;48016;50.284;18.860;2023-02-13T06:49:47;100067.36;;;2.42;88.33
62057;BME280;48016;50.284;18.860;2023-02-13T06:52:14;100069.81;;;2.50;88.40
62057;BME280;48016;50.284;18.860;2023-02-13T06:54:41;100072.73;;;2.59;88.30
62057;BME280;48016;50.284;18.860;2023-02-13T06:57:07;100076.59;;;2.75;88.25
62057;BME280;48016;50.284;18.860;2023-02-13T06:59:34;100079.14;;;2.90;88.20
62057;BME280;48016;50.284;18.860;2023-02-13T07:02:01;100078.27;;;2.95;87.98
62057;BME280;48016;50.284;18.860;2023-02-13T07:04:28;100076.70;;;2.96;87.86
62057;BME280;48016;50.284;18.860;2023-02-13T07:06:55;100076.80;;;2.97;87.94
62057;BME280;48016;50.284;18.860;2023-02-13T07:09:23;100080.41;;;2.96;87.82
62057;BME280;48016;50.284;18.860;2023-02-13T07:11:50;100080.34;;;2.95;87.57
62057;BME280;48016;50.284;18.860;2023-02-13T07:14:17;100081.59;;;2.99;87.61
62057;BME280;48016;50.284;18.860;2023-02-13T07:16:43;100084.35;;;3.09;87.68
62057;BME280;48016;50.284;18.860;2023-02-13T07:19:10;100082.20;;;3.18;87.37
62057;BME280;48016;50.284;18.860;2023-02-13T07:21:37;100076.20;;;3.24;87.46
62057;BME280;48016;50.284;18.860;2023-02-13T07:24:04;100071.67;;;3.32;87.63
62057;BME280;48016;50.284;18.860;2023-02-13T07:26:31;100069.21;;;3.41;87.53
62057;BME280;48016;50.284;18.860;2023-02-13T07:28:57;100071.23;;;3.50;87.35
62057;BME280;48016;50.284;18.860;2023-02-13T07:31:24;100075.05;;;3.61;87.33
62057;BME280;48016;50.284;18.860;2023-02-13T07:33:50;100076.86;;;3.74;87.26
62057;BME280;48016;50.284;18.860;2023-02-13T07:36:17;100078.16;;;3.87;87.20
62057;BME280;48016;50.284;18.860;2023-02-13T07:38:44;100078.58;;;3.96;87.22
62057;BME280;48016;50.284;18.860;2023-02-13T07:41:11;100076.21;;;4.04;86.93
62057;BME280;48016;50.284;18.860;2023-02-13T07:43:38;100071.23;;;4.13;86.73
62057;BME280;48016;50.284;18.860;2023-02-13T07:46:04;100072.70;;;4.22;86.71
62057;BME280;48016;50.284;18.860;2023-02-13T07:48:32;100068.73;;;4.28;86.52
62057;BME280;48016;50.284;18.860;2023-02-13T07:51:00;100064.45;;;4.34;86.25
62057;BME280;48016;50.284;18.860;2023-02-13T07:53:27;100062.58;;;4.39;86.11
62057;BME280;48016;50.284;18.860;2023-02-13T07:55:54;100063.44;;;4.44;86.21
62057;BME280;48016;50.284;18.860;2023-02-13T07:58:21;100064.21;;;4.51;86.00
62057;BME280;48016;50.284;18.860;2023-02-13T08:00:47;100064.77;;;4.56;85.70
62057;BME280;48016;50.284;18.860;2023-02-13T08:03:14;100068.34;;;4.59;85.73
62057;BME280;48016;50.284;18.860;2023-02-13T08:05:41;100067.83;;;4.61;85.62
62057;BME280;48016;50.284;18.860;2023-02-13T08:08:08;100066.60;;;4.61;85.59
62057;BME280;48016;50.284;18.860;2023-02-13T08:10:34;100067.83;;;4.62;85.42
62057;BME280;48016;50.284;18.860;2023-02-13T08:13:20;100063.36;;;4.64;85.28
62057;BME280;48016;50.284;18.860;2023-02-13T08:15:47;100060.27;;;4.69;85.25
62057;BME280;48016;50.284;18.860;2023-02-13T08:18:13;100056.17;;;4.70;85.16
62057;BME280;48016;50.284;18.860;2023-02-13T08:20:40;100062.69;;;4.67;85.15
62057;BME280;48016;50.284;18.860;2023-02-13T08:23:09;100066.04;;;4.65;85.17
62057;BME280;48016;50.284;18.860;2023-02-13T08:25:37;100066.77;;;4.68;85.06
62057;BME280;48016;50.284;18.860;2023-02-13T08:28:04;100066.31;;;4.71;84.76
62057;BME280;48016;50.284;18.860;2023-02-13T08:30:31;100069.01;;;4.72;84.89
62057;BME280;48016;50.284;18.860;2023-02-13T08:32:58;100074.00;;;4.69;84.81
62057;BME280;48016;50.284;18.860;2023-02-13T08:35:25;100076.70;;;4.64;84.72
62057;BME280;48016;50.284;18.860;2023-02-13T08:37:55;100077.41;;;4.61;84.98
62057;BME280;48016;50.284;18.860;2023-02-13T08:40:22;100076.88;;;4.60;84.93
62057;BME280;48016;50.284;18.860;2023-02-13T08:42:49;100073.52;;;4.61;84.94
62057;BME280;48016;50.284;18.860;2023-02-13T08:45:15;100074.98;;;4.62;84.72
62057;BME280;48016;50.284;18.860;2023-02-13T08:47:42;100079.30;;;4.57;84.87
62057;BME280;48016;50.284;18.860;2023-02-13T08:50:09;100074.88;;;4.58;84.80
62057;BME280;48016;50.284;18.860;2023-02-13T08:52:36;100067.23;;;4.66;84.92
62057;BME280;48016;50.284;18.860;2023-02-13T08:55:03;100066.23;;;4.74;84.87
62057;BME280;48016;50.284;18.860;2023-02-13T08:57:29;100070.77;;;4.82;84.96
62057;BME280;48016;50.284;18.860;2023-02-13T08:59:57;100071.04;;;4.88;84.85
62057;BME280;48016;50.284;18.860;2023-02-13T09:02:23;100072.67;;;4.90;84.76
62057;BME280;48016;50.284;18.860;2023-02-13T09:04:50;100069.60;;;4.89;84.71
62057;BME280;48016;50.284;18.860;2023-02-13T09:07:17;100072.71;;;4.88;84.76
62057;BME280;48016;50.284;18.860;2023-02-13T09:09:43;100072.48;;;4.87;84.76
62057;BME280;48016;50.284;18.860;2023-02-13T09:12:10;100071.65;;;4.85;84.71
62057;BME280;48016;50.284;18.860;2023-02-13T09:14:39;100071.50;;;4.83;84.78
62057;BME280;48016;50.284;18.860;2023-02-13T09:17:05;100068.15;;;4.81;84.64
62057;BME280;48016;50.284;18.860;2023-02-13T09:19:32;100061.93;;;4.80;84.71
62057;BME280;48016;50.284;18.860;2023-02-13T09:21:59;100065.73;;;4.82;84.87
62057;BME280;48016;50.284;18.860;2023-02-13T09:24:26;100070.11;;;4.86;84.79
62057;BME280;48016;50.284;18.860;2023-02-13T09:26:52;100073.75;;;4.89;84.81
62057;BME280;48016;50.284;18.860;2023-02-13T09:29:20;100076.29;;;4.90;84.82
62057;BME280;48016;50.284;18.860;2023-02-13T09:31:46;100079.95;;;4.86;84.78
62057;BME280;48016;50.284;18.860;2023-02-13T09:34:13;100083.02;;;4.81;84.89
62057;BME280;48016;50.284;18.860;2023-02-13T09:36:40;100080.79;;;4.80;85.12
62057;BME280;48016;50.284;18.860;2023-02-13T09:39:08;100081.42;;;4.79;85.05
62057;BME280;48016;50.284;18.860;2023-02-13T09:41:37;100079.20;;;4.82;85.12
62057;BME280;48016;50.284;18.860;2023-02-13T09:44:42;100074.45;;;4.81;85.09
62057;BME280;48016;50.284;18.860;2023-02-13T09:49:43;100066.97;;;4.84;85.35
62057;BME280;48016;50.284;18.860;2023-02-13T09:52:11;100064.31;;;4.91;85.51
62057;BME280;48016;50.284;18.860;2023-02-13T09:54:38;100063.67;;;4.98;85.34
62057;BME280;48016;50.284;18.860;2023-02-13T09:57:33;100071.26;;;4.93;85.39
62057;BME280;48016;50.284;18.860;2023-02-13T10:08:48;100060.42;;;4.86;85.38
62057;BME280;48016;50.284;18.860;2023-02-13T10:14:37;100058.45;;;4.81;85.75
62057;BME280;48016;50.284;18.860;2023-02-13T10:17:43;100062.13;;;4.79;85.70
62057;BME280;48016;50.284;18.860;2023-02-13T10:20:26;100060.52;;;4.82;85.81
62057;BME280;48016;50.284;18.860;2023-02-13T10:22:58;100051.79;;;4.81;85.68
62057;BME280;48016;50.284;18.860;2023-02-13T10:26:01;100047.11;;;4.74;85.75
62057;BME280;48016;50.284;18.860;2023-02-13T10:31:11;100042.63;;;4.73;86.10
62057;BME280;48016;50.284;18.860;2023-02-13T10:33:51;100040.11;;;4.75;86.18
62057;BME280;48016;50.284;18.860;2023-02-13T10:36:25;100034.73;;;4.73;86.25
62057;BME280;48016;50.284;18.860;2023-02-13T10:41:57;100031.71;;;4.75;86.22
62057;BME280;48016;50.284;18.860;2023-02-13T10:58:19;100013.93;;;4.74;86.27
62057;BME280;48016;50.284;18.860;2023-02-13T11:00:55;100011.03;;;4.76;86.25
62057;BME280;48016;50.284;18.860;2023-02-13T11:03:27;100010.29;;;4.76;86.31
62057;BME280;48016;50.284;18.860;2023-02-13T11:05:55;100010.73;;;4.76;86.51
62057;BME280;48016;50.284;18.860;2023-02-13T11:08:32;100007.05;;;4.78;86.47
62057;BME280;48016;50.284;18.860;2023-02-13T11:10:59;100005.98;;;4.78;86.56
62057;BME280;48016;50.284;18.860;2023-02-13T11:13:28;100001.16;;;4.80;86.55
62057;BME280;48016;50.284;18.860;2023-02-13T11:16:01;99995.27;;;4.81;86.60
62057;BME280;48016;50.284;18.860;2023-02-13T11:18:34;99991.63;;;4.87;86.85
62057;BME280;48016;50.284;18.860;2023-02-13T11:21:09;99986.30;;;4.95;86.76
62057;BME280;48016;50.284;18.860;2023-02-13T11:23:48;99982.89;;;5.00;86.71
62057;BME280;48016;50.284;18.860;2023-02-13T11:26:35;99977.00;;;5.01;86.84
62057;BME280;48016;50.284;18.860;2023-02-13T11:32:22;99979.16;;;5.11;86.97
62057;BME280;48016;50.284;18.860;2023-02-13T11:34:49;99982.88;;;5.11;86.98
62057;BME280;48016;50.284;18.860;2023-02-13T11:39:56;99982.78;;;5.15;87.16
62057;BME280;48016;50.284;18.860;2023-02-13T11:42:33;99980.79;;;5.18;87.08
62057;BME280;48016;50.284;18.860;2023-02-13T11:45:05;99978.27;;;5.20;86.98
62057;BME280;48016;50.284;18.860;2023-02-13T11:47:40;99971.19;;;5.24;87.19
62057;BME280;48016;50.284;18.860;2023-02-13T11:50:27;99972.80;;;5.32;87.10
62057;BME280;48016;50.284;18.860;2023-02-13T11:55:32;99963.92;;;5.33;87.15
62057;BME280;48016;50.284;18.860;2023-02-13T12:00:42;99957.98;;;5.33;87.23
62057;BME280;48016;50.284;18.860;2023-02-13T12:03:28;99959.73;;;5.35;87.30
62057;BME280;48016;50.284;18.860;2023-02-13T12:06:22;99965.95;;;5.35;87.49
62057;BME280;48016;50.284;18.860;2023-02-13T12:08:49;99969.92;;;5.36;87.37
62057;BME280;48016;50.284;18.860;2023-02-13T12:13:55;99964.85;;;5.32;87.43
62057;BME280;48016;50.284;18.860;2023-02-13T12:16:29;99964.37;;;5.30;87.28
62057;BME280;48016;50.284;18.860;2023-02-13T12:19:03;99957.54;;;5.26;87.34
62057;BME280;48016;50.284;18.860;2023-02-13T12:21:50;99955.41;;;5.23;87.38
62057;BME280;48016;50.284;18.860;2023-02-13T12:41:12;99961.48;;;5.00;87.41
62057;BME280;48016;50.284;18.860;2023-02-13T12:46:36;99960.88;;;4.97;87.64
62057;BME280;48016;50.284;18.860;2023-02-13T12:52:33;99951.64;;;4.98;87.58
62057;BME280;48016;50.284;18.860;2023-02-13T12:54:57;99949.77;;;4.95;87.51
62057;BME280;48016;50.284;18.860;2023-02-13T12:57:49;99944.99;;;4.91;87.63
62057;BME280;48016;50.284;18.860;2023-02-13T13:03:18;99946.33;;;4.90;87.89
62057;BME280;48016;50.284;18.860;2023-02-13T13:14:25;99955.98;;;5.04;87.92
62057;BME280;48016;50.284;18.860;2023-02-13T13:16:57;99956.05;;;5.08;87.92
62057;BME280;48016;50.284;18.860;2023-02-13T13:22:32;99952.37;;;5.05;88.00
62057;BME280;48016;50.284;18.860;2023-02-13T13:25:28;99956.06;;;5.08;87.92
62057;BME280;48016;50.284;18.860;2023-02-13T13:28:07;99954.54;;;5.11;87.98
62057;BME280;48016;50.284;18.860;2023-02-13T13:30:38;99954.50;;;5.16;88.02
62057;BME280;48016;50.284;18.860;2023-02-13T13:33:19;99951.95;;;5.23;87.84
62057;BME280;48016;50.284;18.860;2023-02-13T13:36:08;99950.20;;;5.29;87.77
62057;BME280;48016;50.284;18.860;2023-02-13T13:39:05;99946.92;;;5.31;87.88
62057;BME280;48016;50.284;18.860;2023-02-13T13:49:49;99947.77;;;5.25;88.01
62057;BME280;48016;50.284;18.860;2023-02-13T13:52:19;99950.42;;;5.23;87.86
62057;BME280;48016;50.284;18.860;2023-02-13T13:54:47;99950.08;;;5.29;87.87
62057;BME280;48016;50.284;18.860;2023-02-13T13:57:22;99948.04;;;5.34;87.91
62057;BME280;48016;50.284;18.860;2023-02-13T14:02:42;99951.50;;;5.38;87.70
62057;BME280;48016;50.284;18.860;2023-02-13T14:05:29;99948.71;;;5.34;87.62
62057;BME280;48016;50.284;18.860;2023-02-13T14:07:59;99944.02;;;5.30;87.65
62057;BME280;48016;50.284;18.860;2023-02-13T14:20:41;99947.45;;;5.09;87.24
62057;BME280;48016;50.284;18.860;2023-02-13T14:34:24;99947.10;;;5.07;86.67
62057;BME280;48016;50.284;18.860;2023-02-13T14:39:38;99947.48;;;5.01;86.41
62057;BME280;48016;50.284;18.860;2023-02-13T14:42:24;99942.47;;;4.96;86.38
62057;BME280;48016;50.284;18.860;2023-02-13T14:44:57;99939.92;;;4.92;86.23
62057;BME280;48016;50.284;18.860;2023-02-13T14:47:31;99940.69;;;4.88;86.26
62057;BME280;48016;50.284;18.860;2023-02-13T14:50:03;99935.88;;;4.86;86.25
62057;BME280;48016;50.284;18.860;2023-02-13T14:52:35;99935.55;;;4.85;86.13
62057;BME280;48016;50.284;18.860;2023-02-13T14:57:44;99929.69;;;4.75;86.17
62057;BME280;48016;50.284;18.860;2023-02-13T15:00:26;99927.64;;;4.71;86.07
62057;BME280;48016;50.284;18.860;2023-02-13T15:02:58;99929.52;;;4.69;86.07
62057;BME280;48016;50.284;18.860;2023-02-13T15:05:33;99933.08;;;4.67;85.97
62057;BME280;48016;50.284;18.860;2023-02-13T15:08:31;99930.91;;;4.66;86.04
62057;BME280;48016;50.284;18.860;2023-02-13T15:10:59;99928.26;;;4.63;85.95
62057;BME280;48016;50.284;18.860;2023-02-13T15:13:34;99930.96;;;4.60;85.88
62057;BME280;48016;50.284;18.860;2023-02-13T15:16:05;99921.80;;;4.57;86.14
62057;BME280;48016;50.284;18.860;2023-02-13T15:19:01;99926.35;;;4.56;86.04
62057;BME280;48016;50.284;18.860;2023-02-13T15:21:28;99918.13;;;4.55;86.01
62057;BME280;48016;50.284;18.860;2023-02-13T15:23:58;99912.63;;;4.51;86.03
62057;BME280;48016;50.284;18.860;2023-02-13T15:26:25;99909.63;;;4.48;86.08
62057;BME280;48016;50.284;18.860;2023-02-13T15:31:38;99919.77;;;4.37;85.92
62057;BME280;48016;50.284;18.860;2023-02-13T15:34:28;99916.98;;;4.32;85.93
62057;BME280;48016;50.284;18.860;2023-02-13T15:36:57;99914.83;;;4.26;85.92
62057;BME280;48016;50.284;18.860;2023-02-13T15:39:27;99916.42;;;4.23;86.03
62057;BME280;48016;50.284;18.860;2023-02-13T15:41:59;99920.04;;;4.21;86.03
62057;BME280;48016;50.284;18.860;2023-02-13T15:44:36;99914.35;;;4.19;85.99
62057;BME280;48016;50.284;18.860;2023-02-13T15:47:13;99918.85;;;4.14;86.00
62057;BME280;48016;50.284;18.860;2023-02-13T15:49:42;99934.16;;;4.11;85.99
62057;BME280;48016;50.284;18.860;2023-02-13T15:52:30;99931.08;;;4.03;85.88
62057;BME280;48016;50.284;18.860;2023-02-13T15:54:58;99924.29;;;3.94;85.92